Latest Weather Observations for Ngayawili (Elcho Island)

IDD60801

Issued at 8:35 pm CST Saturday 25 October 2014 (issued every 30 minutes, with the page automatically refreshed every 10 minutes)

About weather observations | Map of weather stations | Latest weather observations for NT | Other Formats
Station Details ID: 014517 Name: NGAYAWILI Lat: -12.00 Lon: 135.57 Height: 8.1 m
Data from the previous 72 hours. | See also: Recent months at Ngayawili (Elcho Island)
Date/Time
CST
Temp
°C
App
Temp
°C
Dew
Point
Rel
Hum
%
Delta-T
°C
Wind Press
QNH
hPa
Press
MSL
hPa
Rain
since 9 am
mm
Dir
 
Spd
km/h
Gust
km/h
Spd
kts
Gust
kts
25/08:30pm 25.4 30.4 25.4 100 0.0 ENE 9 13 5 7 - 1013.2 0.0
25/08:00pm 25.8 30.7 25.8 100 0.0 ENE 11 17 6 9 - 1011.9 0.0
25/07:30pm 26.2 31.7 26.2 100 0.0 NE 9 15 5 8 - 1012.3 0.0
25/07:00pm 26.8 32.7 26.8 100 0.0 ENE 9 17 5 9 - 1012.4 0.0
25/06:30pm 27.5 33.5 27.5 100 0.0 NE 11 17 6 9 - 1010.4 0.0
25/06:00pm 28.2 33.8 27.9 98 0.2 NE 15 20 8 11 - 1010.0 0.0
25/05:30pm 29.2 34.3 27.8 92 1.0 NE 17 28 9 15 - 1009.9 0.0
25/05:00pm 29.8 34.6 27.4 87 1.7 NNE 17 26 9 14 - 1011.6 0.0
25/04:30pm 29.9 33.6 27.1 85 2.0 NNE 22 35 12 19 - 1011.0 0.0
25/04:00pm 31.2 34.6 27.8 82 2.5 NNE 26 35 14 19 - 1011.9 0.0
25/03:30pm 31.4 34.2 27.5 80 2.8 NNE 28 41 15 22 - 1010.1 0.0
25/03:00pm 32.1 35.1 27.8 78 3.1 NNE 28 35 15 19 - 1010.1 0.0
25/02:30pm 31.8 35.0 27.5 78 3.1 N 26 35 14 19 - 1010.6 0.0
25/02:00pm 30.7 34.1 27.3 82 2.5 NNE 24 33 13 18 - 1010.8 0.0
25/01:30pm 31.7 36.8 26.7 75 3.6 NE 13 20 7 11 - 1012.7 0.0
25/01:00pm 30.8 35.6 26.3 77 3.2 E 13 24 7 13 - 1013.7 0.0
25/12:30pm 31.4 35.8 26.2 74 3.7 NE 15 32 8 17 - 1012.7 0.0
25/12:00pm 32.4 37.3 26.9 73 4.0 NE 15 24 8 13 - 1013.1 0.0
25/11:30am 31.3 34.7 25.9 73 3.8 NE 19 32 10 17 - 1013.6 0.0
25/11:00am 30.7 33.6 25.1 72 3.9 NE 19 30 10 16 - 1014.0 0.0
25/10:30am 30.3 33.5 24.9 73 3.8 E 17 32 9 17 - 1014.8 0.0
25/10:00am 30.4 34.2 25.9 77 3.2 E 17 24 9 13 - 1015.6 0.0
25/09:30am 29.3 33.5 26.5 85 2.0 ESE 17 26 9 14 - 1015.4 0.0
25/09:00am 28.6 32.6 26.8 90 1.3 ENE 19 28 10 15 - 1015.2 0.0
25/08:30am 27.5 32.6 27.3 99 0.1 ESE 15 26 8 14 - 1015.7 0.0
25/08:00am 27.0 32.7 27.0 100 0.0 E 11 17 6 9 - 1015.2 0.0
25/07:30am 25.4 30.8 25.4 100 0.0 E 7 13 4 7 - 1014.8 0.0
25/07:00am 23.0 26.9 23.0 100 0.0 E 7 9 4 5 - 1014.6 0.0
25/06:30am 21.6 24.4 21.6 100 0.0 E 9 9 5 5 - 1014.1 0.0
25/06:00am 20.8 23.6 20.8 100 0.0 E 7 9 4 5 - 1013.8 0.0
25/05:30am 20.7 23.4 20.7 100 0.0 ENE 7 9 4 5 - 1013.5 0.0
25/05:00am 21.2 24.2 21.2 100 0.0 ENE 7 9 4 5 - 1012.9 0.0
25/04:30am 21.8 24.7 21.8 100 0.0 E 9 11 5 6 - 1012.6 0.0
25/04:00am 21.4 24.5 21.4 100 0.0 E 7 9 4 5 - 1012.6 0.0
25/03:30am 20.9 23.7 20.9 100 0.0 E 7 11 4 6 - 1012.9 0.0
25/03:00am 21.0 23.9 21.0 100 0.0 E 7 11 4 6 - 1012.4 0.0
25/02:30am 21.3 24.3 21.3 100 0.0 E 7 7 4 4 - 1013.0 0.0
25/02:00am 22.0 25.4 22.0 100 0.0 E 7 9 4 5 - 1012.8 0.0
25/01:30am 21.3 24.3 21.3 100 0.0 E 7 9 4 5 - 1013.1 0.0
25/01:00am 21.8 25.1 21.8 100 0.0 E 7 9 4 5 - 1013.6 0.0
25/12:30am 22.1 25.6 22.1 100 0.0 E 7 9 4 5 - 1013.6 0.0
25/12:00am 23.2 26.9 23.2 100 0.0 E 9 11 5 6 - 1012.9 0.0
 
Date/Time
CST
Temp
°C
App
Temp
°C
Dew
Point
Rel
Hum
%
Delta-T
°C
Wind Press
QNH
hPa
Press
MSL
hPa
Rain
since 9 am
mm
Dir
 
Spd
km/h
Gust
km/h
Spd
kts
Gust
kts
24/11:30pm 23.5 27.7 23.5 100 0.0 E 7 9 4 5 - 1013.8 0.0
24/11:00pm 24.2 28.8 24.2 100 0.0 E 7 9 4 5 - 1012.9 0.0
24/10:30pm 24.8 29.8 24.8 100 0.0 E 7 11 4 6 - 1014.0 0.0
24/10:00pm 25.4 30.4 25.4 100 0.0 ENE 9 13 5 7 - 1013.6 0.0
24/09:30pm 25.7 30.9 25.7 100 0.0 E 9 17 5 9 - 1012.5 0.0
24/09:00pm 25.7 30.5 25.7 100 0.0 E 11 17 6 9 - 1011.5 0.0
24/08:30pm 25.8 30.7 25.8 100 0.0 E 11 19 6 10 - 1011.5 0.0
24/08:00pm 26.1 30.8 26.1 100 0.0 ENE 13 24 7 13 - 1010.7 0.0
24/07:30pm 26.1 30.8 26.1 100 0.0 ENE 13 19 7 10 - 1011.1 0.0
24/07:00pm 26.4 31.3 26.4 100 0.0 ENE 13 22 7 12 - 1009.6 0.0
24/06:30pm 26.9 31.6 26.7 99 0.1 ENE 15 22 8 12 - 1009.0 0.0
24/06:00pm 27.5 31.7 27.0 97 0.4 NE 19 28 10 15 - 1008.8 0.0
24/05:30pm 28.3 32.2 26.9 92 1.0 NE 20 28 11 15 - 1008.5 0.0
24/05:00pm 29.1 33.1 26.7 87 1.7 NE 19 30 10 16 - 1010.5 0.0
24/04:30pm 30.2 34.0 26.8 82 2.4 NNE 20 30 11 16 - 1009.7 0.0
24/04:00pm 30.7 33.4 27.3 82 2.5 NNE 28 39 15 21 - 1010.6 0.0
24/03:30pm 30.6 33.1 27.0 81 2.6 NNE 28 37 15 20 - 1008.7 0.0
24/03:00pm 31.1 34.5 25.9 74 3.7 E 19 37 10 20 - 1008.6 0.0
24/02:30pm 32.5 35.3 25.3 66 5.1 SE 20 33 11 18 - 1009.1 0.0
24/02:00pm 33.0 36.0 25.5 64 5.3 ENE 20 28 11 15 - 1011.8 0.0
24/01:30pm 32.4 35.9 25.5 67 4.9 ESE 17 35 9 19 - 1010.1 0.0
24/01:00pm 30.9 34.0 24.8 70 4.3 ESE 17 24 9 13 - 1012.8 0.0
24/12:30pm 30.7 33.5 25.3 73 3.8 E 20 30 11 16 - 1012.8 0.0
24/12:00pm 31.2 34.7 25.5 71 4.0 ENE 17 28 9 15 - 1011.7 0.0
24/11:30am 31.7 35.4 26.3 73 3.9 ENE 19 30 10 16 - 1012.9 0.0
24/11:00am 30.1 32.6 24.5 72 3.9 E 19 33 10 18 - 1014.4 0.0
24/10:30am 30.2 33.4 25.5 76 3.3 ENE 19 26 10 14 - 1014.2 0.0
24/10:00am 30.0 33.3 25.1 75 3.4 ENE 17 28 9 15 - 1014.8 0.0
24/09:30am 29.8 32.7 24.4 73 3.8 E 17 33 9 18 - 1014.8 0.0
24/09:00am 29.2 34.0 27.4 90 1.3 E 17 30 9 16 - 1014.8 0.0
24/08:30am 27.9 32.9 27.6 98 0.2 E 17 32 9 17 - 1014.9 0.0
24/08:00am 26.9 31.4 26.9 100 0.0 E 17 26 9 14 - 1014.5 0.0
24/07:30am 26.0 29.9 26.0 100 0.0 E 17 26 9 14 - 1014.2 0.0
24/07:00am 24.6 28.7 24.6 100 0.0 E 11 17 6 9 - 1013.2 0.0
24/06:30am 23.1 26.7 23.1 100 0.0 E 9 15 5 8 - 1013.7 0.0
24/06:00am 23.0 26.6 23.0 100 0.0 E 9 13 5 7 - 1012.7 0.0
24/05:30am 23.3 27.0 23.3 100 0.0 E 9 13 5 7 - 1012.5 0.0
24/05:00am 23.5 27.0 23.5 100 0.0 ESE 11 17 6 9 - 1012.2 0.0
24/04:30am 23.4 26.8 23.4 100 0.0 E 11 13 6 7 - 1010.6 0.0
24/04:00am 23.7 27.7 23.7 100 0.0 E 9 13 5 7 - 1012.2 0.0
24/03:30am 23.9 28.0 23.9 100 0.0 ESE 9 15 5 8 - 1012.1 0.0
24/03:00am 24.0 27.8 24.0 100 0.0 ESE 11 15 6 8 - 1012.3 0.0
24/02:30am 24.1 28.3 24.1 100 0.0 E 9 13 5 7 - 1012.3 0.0
24/02:00am 24.3 28.6 24.3 100 0.0 ESE 9 13 5 7 - 1012.7 0.0
24/01:30am 24.7 28.9 24.7 100 0.0 ESE 11 19 6 10 - 1013.0 0.0
24/01:00am 24.9 29.2 24.9 100 0.0 SE 11 17 6 9 - 1013.2 0.0
24/12:30am 25.3 29.5 25.3 100 0.0 ESE 13 20 7 11 - 1013.7 0.0
24/12:00am 25.5 29.8 25.5 100 0.0 ESE 13 19 7 10 - 1013.2 0.0
 
Date/Time
CST
Temp
°C
App
Temp
°C
Dew
Point
Rel
Hum
%
Delta-T
°C
Wind Press
QNH
hPa
Press
MSL
hPa
Rain
since 9 am
mm
Dir
 
Spd
km/h
Gust
km/h
Spd
kts
Gust
kts
23/11:30pm 25.7 30.1 25.7 100 0.0 ESE 13 20 7 11 - 1014.0 0.0
23/11:00pm 25.7 30.1 25.7 100 0.0 ESE 13 17 7 9 - 1014.3 0.0
23/10:30pm 25.9 30.8 25.9 100 0.0 ESE 11 17 6 9 - 1013.1 0.0
23/10:00pm 26.0 31.4 26.0 100 0.0 ESE 9 15 5 8 - 1014.0 0.0
23/09:30pm 25.9 31.2 25.9 100 0.0 ENE 9 17 5 9 - 1013.5 0.0
23/09:00pm 25.4 30.8 25.4 100 0.0 ENE 7 9 4 5 - 1011.5 0.0
23/08:30pm 25.8 31.4 25.8 100 0.0 ENE 7 9 4 5 - 1012.5 0.0
23/08:00pm 26.4 32.1 26.4 100 0.0 ENE 9 15 5 8 - 1012.1 0.0
23/07:30pm 26.8 32.7 26.8 100 0.0 NE 9 17 5 9 - 1010.2 0.0
23/07:00pm 27.1 32.5 27.1 100 0.0 NE 13 20 7 11 - 1011.6 0.0
23/06:30pm 27.5 32.4 27.0 97 0.4 NE 15 26 8 14 - 1011.3 0.0
23/06:00pm 28.3 32.6 26.7 91 1.1 NE 17 28 9 15 - 1008.7 0.0
23/05:30pm 28.9 32.9 27.1 90 1.3 NNE 20 30 11 16 - 1010.7 0.0
23/05:00pm 29.2 32.5 27.2 89 1.4 NNE 24 35 13 19 - 1008.1 0.0
23/04:30pm 30.0 32.5 26.0 79 2.8 NNE 24 37 13 20 - 1008.0 0.0
23/04:00pm 31.1 33.9 27.0 79 3.0 NNE 26 41 14 22 - 1010.4 0.0
23/03:30pm 31.0 32.9 27.3 81 2.7 N 32 39 17 21 - 1010.6 0.0
23/03:00pm 31.7 33.7 27.4 78 3.1 N 32 39 17 21 - 1010.9 0.0
23/02:30pm 31.0 32.3 26.5 77 3.2 N 32 41 17 22 - 1011.1 0.0
23/02:00pm 32.1 34.4 27.3 76 3.5 N 30 37 16 20 - 1011.5 0.0
23/01:30pm 30.9 33.2 27.3 81 2.6 N 30 39 16 21 - 1010.1 0.0
23/01:00pm 31.5 34.8 28.7 85 2.1 N 30 37 16 20 - 1012.6 0.0
23/12:30pm 31.4 35.2 28.8 86 1.9 N 28 35 15 19 - 1013.1 0.0
23/12:00pm 31.4 37.2 28.2 83 2.3 N 15 22 8 12 - 1013.7 0.0
23/11:30am 31.0 35.2 26.0 74 3.6 NE 15 20 8 11 - 1014.0 0.0
23/11:00am 31.3 34.7 24.7 68 4.6 E 15 26 8 14 - 1014.2 0.0
23/10:30am 31.0 35.6 26.5 77 3.2 SE 15 22 8 12 - 1016.3 0.0
23/10:00am 30.3 35.4 26.7 81 2.6 NE 13 19 7 10 - 1014.7 0.0
23/09:30am 29.2 33.3 25.8 82 2.4 NE 15 26 8 14 - 1014.7 0.0
23/09:00am 28.6 32.6 26.2 87 1.7 NE 17 22 9 12 - 1014.1 0.0
23/08:30am 27.9 34.6 27.9 100 0.0 NE 9 17 5 9 - 1014.8 0.0
23/08:00am 26.6 32.0 26.6 100 0.0 E 11 17 6 9 - 1014.0 0.0
23/07:30am 25.1 29.9 25.1 100 0.0 E 9 15 5 8 - 1013.6 0.0
23/07:00am 23.8 28.4 23.8 100 0.0 ESE 6 9 3 5 - 1014.0 0.0
23/06:30am 22.8 26.3 22.8 100 0.0 ESE 9 11 5 6 - 1013.7 0.0
23/06:00am 22.1 25.2 22.1 100 0.0 ESE 9 11 5 6 - 1013.3 0.0
23/05:30am 22.1 25.2 22.1 100 0.0 ESE 9 11 5 6 - 1012.9 0.0
23/05:00am 21.8 24.7 21.8 100 0.0 ESE 9 11 5 6 - 1012.6 0.0
23/04:30am 21.9 24.9 21.9 100 0.0 ESE 9 11 5 6 - 1011.8 0.0
23/04:00am 21.2 23.4 21.2 100 0.0 E 11 13 6 7 - 1012.4 0.0
23/03:30am 20.9 23.7 20.9 100 0.0 E 7 9 4 5 - 1012.3 0.0
23/03:00am 21.3 24.3 21.3 100 0.0 E 7 9 4 5 - 1012.7 0.0
23/02:30am 21.2 24.2 21.2 100 0.0 E 7 9 4 5 - 1012.5 0.0
23/02:00am 21.6 24.8 21.6 100 0.0 E 7 7 4 4 - 1013.0 0.0
23/01:30am 21.8 25.3 21.8 100 0.0 E 6 6 3 3 - 1012.8 0.0
23/01:00am 22.5 26.2 22.5 100 0.0 E 7 7 4 4 - 1013.6 0.0
23/12:30am 23.0 27.1 23.0 100 0.0 E 6 7 3 4 - 1013.8 0.0
23/12:00am 24.0 28.7 24.0 100 0.0 E 6 7 3 4 - 1014.0 0.0
 
Date/Time
CST
Temp
°C
App
Temp
°C
Dew
Point
Rel
Hum
%
Delta-T
°C
Wind Press
QNH
hPa
Press
MSL
hPa
Rain
since 9 am
mm
Dir
 
Spd
km/h
Gust
km/h
Spd
kts
Gust
kts
22/11:30pm 24.7 29.8 24.7 100 0.0 E 6 7 3 4 - 1014.0 0.0
22/11:00pm 25.2 30.5 25.2 100 0.0 E 7 13 4 7 - 1013.1 0.0
22/10:30pm 25.6 30.7 25.6 100 0.0 ENE 9 15 5 8 - 1013.1 0.0
22/10:00pm 25.9 30.8 25.9 100 0.0 E 11 20 6 11 - 1013.9 0.0
22/09:30pm 26.0 31.0 26.0 100 0.0 E 11 19 6 10 - 1013.6 0.0
22/09:00pm 26.0 31.4 26.0 100 0.0 E 9 13 5 7 - 1011.8 0.0

Other Formats:

Comma delimited format used in spreadsheet applications
http://www.bom.gov.au/fwo/IDD60801/IDD60801.95146.axf

JavaScript Object Notation format (JSON) in row-major order
http://www.bom.gov.au/fwo/IDD60801/IDD60801.95146.json